Ouaquaga, New York
Current Conditions -  °F | °C
As of 12:42 AM on Sunday 26 Oct 2014 (Local Time) from KBGM Reporting Station
Thunderstorm Thunderstorm  
Wind Chill: 51°   Ceiling: 10000
Heat Index: 51°   Visibility: 10mi
Dew Point: 42°   Wind: 10mph
Humidity: 71%   Direction: 250°WSW
Pressure: 29.55"   Gusts: NA
Location:  42.13°N, 75.65°W
Report Text: KBGM 260442Z AUTO 25009KT 10SM VCTS FEW044 SCT080 BKN100 11/06 A2955 RMK AO2 LTG DSNT W-NE T01060056
Loading
Personal Weather Stations






























Interactive Weather Map
Tropical Storm Tracking
New forecast layout! Learn more

10-Day Weather Forecast

Advertisements
Track Severe Weather on mobile